Time;durP1;ratioP1;P1;durP2;ratioP2;P2;SDS_P1;SDS_P2;PMS_P1;PMS_P2;Temp;Humidity;BMP_temperature;BMP_pressure;BME280_temperature;BME280_humidity;BME280_pressure;Samples;Min_cycle;Max_cycle;Signal;HPM_P1;HPM_P2
2022/03/09 00:00:17;;;;;;;7.07;2.95;;;2.70;99.90;;;;;;4999208;28;20588;-48
2022/03/09 00:02:43;;;;;;;7.10;2.50;;;2.70;99.90;;;;;;5015487;28;20053;-46
2022/03/09 00:05:09;;;;;;;7.45;2.80;;;2.70;99.90;;;;;;5028419;28;20051;-48
2022/03/09 00:07:35;;;;;;;7.57;3.40;;;2.70;99.90;;;;;;5033162;28;20695;-47
2022/03/09 00:10:01;;;;;;;8.82;2.97;;;2.70;99.90;;;;;;5032927;28;20039;-50
2022/03/09 00:12:26;;;;;;;6.22;2.97;;;2.70;99.90;;;;;;5033250;28;20037;-49
2022/03/09 00:14:52;;;;;;;7.88;3.00;;;2.70;99.90;;;;;;5032829;28;20128;-47
2022/03/09 00:17:18;;;;;;;8.85;3.40;;;2.60;99.90;;;;;;5033190;28;20041;-50
2022/03/09 00:19:44;;;;;;;8.52;3.30;;;2.60;99.90;;;;;;5032792;28;20037;-51
2022/03/09 00:22:09;;;;;;;8.00;3.67;;;2.60;99.90;;;;;;5032808;28;20132;-48
2022/03/09 00:24:35;;;;;;;7.55;3.47;;;2.60;99.90;;;;;;5032637;28;20046;-48
2022/03/09 00:27:01;;;;;;;7.57;3.45;;;2.60;99.90;;;;;;5032950;28;20037;-46
2022/03/09 00:29:27;;;;;;;7.25;3.58;;;2.60;99.90;;;;;;5015075;28;20088;-48
2022/03/09 00:31:53;;;;;;;6.75;3.38;;;2.50;99.90;;;;;;5014841;28;20078;-48
2022/03/09 00:34:19;;;;;;;8.02;3.58;;;2.50;99.90;;;;;;5032629;28;20103;-48
2022/03/09 00:36:45;;;;;;;7.47;3.13;;;2.50;99.90;;;;;;5032482;28;20482;-47
2022/03/09 00:39:11;;;;;;;7.45;3.40;;;2.50;99.90;;;;;;5032857;28;20041;-51
2022/03/09 00:41:37;;;;;;;8.10;3.13;;;2.40;99.90;;;;;;5014895;28;20405;-48
2022/03/09 00:44:04;;;;;;;7.18;3.40;;;2.40;99.90;;;;;;5032604;28;20043;-48
2022/03/09 00:46:30;;;;;;;10.95;3.45;;;2.30;99.90;;;;;;5014529;28;20046;-49
2022/03/09 00:48:56;;;;;;;8.52;3.58;;;2.40;99.90;;;;;;5032407;28;20394;-47
2022/03/09 00:51:22;;;;;;;9.15;3.58;;;2.40;99.90;;;;;;5032527;28;20030;-51
2022/03/09 00:53:48;;;;;;;9.23;3.40;;;2.30;99.90;;;;;;5032454;28;20441;-50
2022/03/09 00:56:14;;;;;;;7.25;3.70;;;2.30;99.90;;;;;;5032381;28;20038;-47
2022/03/09 00:58:40;;;;;;;7.45;3.65;;;2.30;99.90;;;;;;5032334;28;20490;-47
2022/03/09 01:01:06;;;;;;;6.20;3.15;;;2.30;99.90;;;;;;5014843;28;20115;-47
2022/03/09 01:03:32;;;;;;;8.05;3.78;;;2.30;99.90;;;;;;5030527;28;20474;-46
2022/03/09 01:05:58;;;;;;;9.70;3.60;;;2.30;99.90;;;;;;5029315;28;20061;-46
2022/03/09 01:08:23;;;;;;;7.75;3.90;;;2.20;99.90;;;;;;5032361;28;20065;-47
2022/03/09 01:10:50;;;;;;;9.63;3.85;;;2.20;99.90;;;;;;5032278;28;20096;-46
2022/03/09 01:13:15;;;;;;;7.25;3.45;;;2.20;99.90;;;;;;5032163;28;20041;-46
2022/03/09 01:15:41;;;;;;;9.20;3.85;;;2.20;99.90;;;;;;5032372;28;20440;-47
2022/03/09 01:18:07;;;;;;;7.75;3.70;;;2.20;99.90;;;;;;5032339;28;20489;-46
2022/03/09 01:20:32;;;;;;;8.45;4.35;;;2.20;99.90;;;;;;5031967;28;20042;-47
2022/03/09 01:22:58;;;;;;;8.82;3.58;;;2.10;99.90;;;;;;5031838;28;20053;-52
2022/03/09 01:25:24;;;;;;;8.48;3.90;;;2.10;99.90;;;;;;5014433;28;20045;-52
2022/03/09 01:27:49;;;;;;;7.47;3.65;;;2.10;99.90;;;;;;5032072;28;20436;-46
2022/03/09 01:30:15;;;;;;;8.18;3.95;;;2.10;99.90;;;;;;5032280;28;20579;-48
2022/03/09 01:32:41;;;;;;;8.93;3.85;;;2.20;99.90;;;;;;5032029;28;20034;-46
2022/03/09 01:35:08;;;;;;;7.35;3.90;;;2.20;99.90;;;;;;5032090;28;20505;-48
2022/03/09 01:37:34;;;;;;;8.35;3.88;;;2.10;99.90;;;;;;5014225;28;20045;-50
2022/03/09 01:40:00;;;;;;;9.32;4.18;;;2.10;99.90;;;;;;5030972;28;20045;-52
2022/03/09 01:42:25;;;;;;;7.72;4.10;;;2.10;99.90;;;;;;5031849;28;20037;-50
2022/03/09 01:44:52;;;;;;;10.02;4.30;;;2.10;99.90;;;;;;5031671;28;20044;-50
2022/03/09 01:47:17;;;;;;;8.77;4.03;;;2.10;99.90;;;;;;5034454;28;20045;-50
2022/03/09 01:49:43;;;;;;;8.65;3.65;;;2.00;99.90;;;;;;5035584;28;20467;-49
2022/03/09 01:52:11;;;;;;;8.82;3.80;;;2.00;99.90;;;;;;5017801;28;20053;-50
2022/03/09 01:54:39;;;;;;;9.38;3.90;;;2.00;99.90;;;;;;5035631;28;20048;-50
2022/03/09 01:57:05;;;;;;;8.52;4.50;;;2.00;99.90;;;;;;5035636;28;20068;-48
2022/03/09 01:59:30;;;;;;;7.78;4.13;;;2.00;99.90;;;;;;5035363;28;20478;-52
2022/03/09 02:01:56;;;;;;;9.93;4.03;;;2.00;99.90;;;;;;5035484;28;20038;-47
2022/03/09 02:04:22;;;;;;;11.73;3.90;;;2.00;99.90;;;;;;5030949;28;20029;-47
2022/03/09 02:06:48;;;;;;;8.75;4.43;;;2.00;99.90;;;;;;5035433;28;20041;-48
2022/03/09 02:11:57;;;;;;;8.80;4.80;;;1.90;99.90;;;;;;5035218;28;20060;-48
2022/03/09 02:14:36;;;;;;;8.50;4.10;;;1.90;99.90;;;;;;5035363;28;20049;-47
2022/03/09 02:17:15;;;;;;;7.65;3.78;;;1.90;99.90;;;;;;5035034;28;20049;-48
2022/03/09 02:19:44;;;;;;;9.23;3.90;;;1.90;99.90;;;;;;5035317;28;20436;-47
2022/03/09 02:22:28;;;;;;;9.88;4.25;;;1.90;99.90;;;;;;5034674;28;20649;-48
2022/03/09 02:24:53;;;;;;;8.80;3.95;;;1.90;99.90;;;;;;5034883;28;20099;-48
2022/03/09 02:27:23;;;;;;;9.77;4.85;;;1.90;99.90;;;;;;5034971;28;20041;-46
2022/03/09 02:29:50;;;;;;;8.40;4.22;;;1.90;99.90;;;;;;5035182;28;20405;-49
2022/03/09 02:32:17;;;;;;;10.55;4.47;;;1.90;99.90;;;;;;5035193;28;20077;-48
2022/03/09 02:34:43;;;;;;;8.63;4.45;;;1.90;99.90;;;;;;5034849;28;20037;-48
2022/03/09 02:37:09;;;;;;;9.15;4.10;;;1.90;99.90;;;;;;5034882;28;20041;-47
2022/03/09 02:39:35;;;;;;;9.27;4.40;;;1.80;99.90;;;;;;5034697;28;20038;-48
2022/03/09 02:42:01;;;;;;;10.98;4.78;;;1.80;99.90;;;;;;5034748;28;20080;-46
2022/03/09 02:44:26;;;;;;;12.18;5.28;;;1.80;99.90;;;;;;5033705;28;20041;-47
2022/03/09 02:46:52;;;;;;;10.75;4.55;;;1.80;99.90;;;;;;5034408;28;20041;-46
2022/03/09 02:49:18;;;;;;;8.90;4.57;;;1.80;99.90;;;;;;5034677;28;20091;-46
2022/03/09 02:51:44;;;;;;;10.93;4.70;;;1.80;99.90;;;;;;5034785;28;20107;-46
2022/03/09 02:54:10;;;;;;;11.38;4.80;;;1.80;99.90;;;;;;5034485;28;20042;-47
2022/03/09 02:56:35;;;;;;;11.45;4.55;;;1.80;99.90;;;;;;5034649;28;20052;-47
2022/03/09 02:59:01;;;;;;;12.55;5.00;;;1.70;99.90;;;;;;5034501;28;20045;-46
2022/03/09 03:01:27;;;;;;;9.30;4.20;;;1.70;99.90;;;;;;5034367;28;20034;-46
2022/03/09 03:03:53;;;;;;;13.00;4.70;;;1.60;99.90;;;;;;5016405;28;20112;-48
2022/03/09 03:06:19;;;;;;;9.63;5.25;;;1.60;99.90;;;;;;5014582;28;20189;-49
2022/03/09 03:08:44;;;;;;;10.82;4.97;;;1.60;99.90;;;;;;5014400;28;20046;-46
2022/03/09 03:11:10;;;;;;;9.73;4.85;;;1.60;99.90;;;;;;4997225;28;20092;-50
2022/03/09 03:13:38;;;;;;;9.18;4.85;;;1.60;99.90;;;;;;5014374;28;20121;-48
2022/03/09 03:16:05;;;;;;;9.40;4.50;;;1.50;99.90;;;;;;5014691;28;20127;-48
2022/03/09 03:18:32;;;;;;;9.35;5.47;;;1.50;99.90;;;;;;5014496;28;20042;-49
2022/03/09 03:20:57;;;;;;;13.88;4.88;;;1.50;99.90;;;;;;5014479;28;20045;-49
2022/03/09 03:23:24;;;;;;;10.23;4.93;;;1.50;99.90;;;;;;5014002;28;20124;-50
2022/03/09 03:25:51;;;;;;;10.48;5.32;;;1.50;99.90;;;;;;4996709;28;20042;-48
2022/03/09 03:28:18;;;;;;;9.02;4.78;;;1.50;99.90;;;;;;5014074;28;20040;-46
2022/03/09 03:30:44;;;;;;;10.15;5.20;;;1.50;99.90;;;;;;5014308;28;20034;-47
2022/03/09 03:33:11;;;;;;;10.85;5.72;;;1.50;99.90;;;;;;5014215;28;20045;-48
2022/03/09 03:35:36;;;;;;;10.57;4.88;;;1.50;99.90;;;;;;5013813;28;20042;-52
2022/03/09 03:38:02;;;;;;;10.45;5.05;;;1.30;99.90;;;;;;5014031;28;20124;-48
2022/03/09 03:40:28;;;;;;;11.27;5.80;;;1.30;99.90;;;;;;5014000;28;20049;-47
2022/03/09 03:42:54;;;;;;;8.82;5.38;;;1.30;99.90;;;;;;5013915;28;20544;-47
2022/03/09 03:45:19;;;;;;;11.25;5.20;;;1.20;99.90;;;;;;5013721;28;20065;-49
2022/03/09 03:47:45;;;;;;;12.02;5.30;;;1.30;99.90;;;;;;4996126;28;20030;-50
2022/03/09 03:50:11;;;;;;;11.35;5.32;;;1.20;99.90;;;;;;5013913;28;20041;-49
2022/03/09 03:52:36;;;;;;;11.38;5.60;;;1.20;99.90;;;;;;5013524;28;20437;-47
2022/03/09 03:55:03;;;;;;;9.70;4.85;;;1.20;99.90;;;;;;5013686;28;20363;-46
2022/03/09 03:57:29;;;;;;;10.88;5.50;;;1.10;99.90;;;;;;5013495;28;20049;-47
2022/03/09 03:59:55;;;;;;;10.55;5.30;;;1.10;99.90;;;;;;4995638;28;20046;-46
2022/03/09 04:02:20;;;;;;;9.27;4.80;;;1.10;99.90;;;;;;5013513;28;20045;-46
2022/03/09 04:04:46;;;;;;;10.52;5.20;;;1.10;99.90;;;;;;5020703;28;20033;-47
2022/03/09 04:07:12;;;;;;;10.35;5.30;;;1.20;99.90;;;;;;5033289;28;20069;-47
2022/03/09 04:09:37;;;;;;;12.40;5.22;;;1.10;99.90;;;;;;5015026;28;20053;-49
2022/03/09 04:12:03;;;;;;;14.90;5.85;;;1.10;99.90;;;;;;5015688;28;20112;-47
2022/03/09 04:14:29;;;;;;;11.57;5.53;;;1.10;99.90;;;;;;5015116;28;20116;-46
2022/03/09 04:16:55;;;;;;;10.50;5.10;;;1.00;99.90;;;;;;5032964;28;20120;-48
2022/03/09 04:19:20;;;;;;;12.43;5.43;;;1.10;99.90;;;;;;5033112;28;20045;-47
2022/03/09 04:21:46;;;;;;;12.38;5.55;;;1.00;99.90;;;;;;5032818;28;20041;-47
2022/03/09 04:24:12;;;;;;;10.93;5.82;;;1.00;99.90;;;;;;5032902;28;20045;-51
2022/03/09 04:26:38;;;;;;;11.52;6.07;;;0.90;99.90;;;;;;5032936;28;20045;-49
2022/03/09 04:29:03;;;;;;;12.23;5.88;;;1.00;99.90;;;;;;5032766;28;20495;-48
2022/03/09 04:31:29;;;;;;;11.75;6.40;;;1.00;99.90;;;;;;5032857;28;20068;-50
2022/03/09 04:33:55;;;;;;;11.18;6.10;;;1.00;99.90;;;;;;5032580;28;20537;-48
2022/03/09 04:36:21;;;;;;;11.00;5.88;;;1.00;99.90;;;;;;5015228;28;20129;-47
2022/03/09 04:38:46;;;;;;;10.02;5.60;;;0.90;99.90;;;;;;5032871;28;20359;-45
2022/03/09 04:41:12;;;;;;;11.68;5.88;;;0.90;99.90;;;;;;5032745;28;20374;-46
2022/03/09 04:43:38;;;;;;;11.32;5.97;;;0.90;99.90;;;;;;5032714;28;20045;-49
2022/03/09 04:46:03;;;;;;;10.85;6.22;;;1.00;99.90;;;;;;5032669;28;20060;-47
2022/03/09 04:48:29;;;;;;;11.70;5.50;;;1.00;99.90;;;;;;5032512;28;20041;-47
2022/03/09 04:50:55;;;;;;;12.20;6.43;;;0.90;99.90;;;;;;5032609;28;20106;-47
2022/03/09 04:53:20;;;;;;;12.50;6.10;;;0.90;99.90;;;;;;5032388;28;20034;-46
2022/03/09 04:55:46;;;;;;;10.52;5.80;;;0.90;99.90;;;;;;5032319;28;20057;-49
2022/03/09 04:58:12;;;;;;;11.48;5.80;;;0.90;99.90;;;;;;5031003;28;20041;-49
2022/03/09 05:00:38;;;;;;;13.13;5.95;;;0.90;99.90;;;;;;5032375;28;20124;-48
2022/03/09 05:03:03;;;;;;;10.43;6.18;;;1.00;99.90;;;;;;5032521;28;20041;-47
2022/03/09 05:05:29;;;;;;;12.65;6.82;;;0.90;99.90;;;;;;5027511;28;20567;-52
2022/03/09 05:07:55;;;;;;;12.35;6.88;;;0.90;99.90;;;;;;5032270;28;20489;-48
2022/03/09 05:10:20;;;;;;;13.40;6.30;;;0.80;99.90;;;;;;5032512;28;20080;-49
2022/03/09 05:12:46;;;;;;;10.90;5.63;;;0.90;99.90;;;;;;5032247;28;20164;-52
2022/03/09 05:15:11;;;;;;;11.80;6.07;;;0.80;99.90;;;;;;5032301;28;20498;-50
2022/03/09 05:17:42;;;;;;;11.13;6.07;;;0.80;99.90;;;;;;5032317;28;20482;-48
2022/03/09 05:20:09;;;;;;;12.65;6.75;;;0.80;99.90;;;;;;5014300;28;20509;-48
2022/03/09 05:22:35;;;;;;;14.75;6.00;;;0.80;99.90;;;;;;5034894;28;20057;-49
2022/03/09 05:25:01;;;;;;;11.50;6.13;;;0.80;99.90;;;;;;5035988;28;20042;-50
2022/03/09 05:27:27;;;;;;;11.43;6.15;;;0.70;99.90;;;;;;5036286;28;20448;-51
2022/03/09 05:29:53;;;;;;;11.82;6.45;;;0.70;99.90;;;;;;5036250;28;20033;-46
2022/03/09 05:32:19;;;;;;;11.70;6.05;;;0.70;99.90;;;;;;5036178;28;20034;-46
2022/03/09 05:34:46;;;;;;;13.43;6.47;;;0.70;99.90;;;;;;5036171;28;20041;-47
2022/03/09 05:37:12;;;;;;;12.18;6.00;;;0.70;99.90;;;;;;5035844;28;20544;-46
2022/03/09 05:39:38;;;;;;;12.30;5.88;;;0.60;99.90;;;;;;5036088;28;20046;-47
2022/03/09 05:42:04;;;;;;;11.07;5.95;;;0.60;99.90;;;;;;5035885;28;20076;-46
2022/03/09 05:44:30;;;;;;;12.23;6.40;;;0.60;99.90;;;;;;5035830;28;20041;-46
2022/03/09 05:46:57;;;;;;;13.80;6.28;;;0.60;99.90;;;;;;5018222;28;20060;-48
2022/03/09 05:49:23;;;;;;;11.13;6.25;;;0.50;99.90;;;;;;5036140;28;20429;-47
2022/03/09 05:51:49;;;;;;;11.15;6.22;;;0.50;99.90;;;;;;5035908;28;20440;-49
2022/03/09 05:54:15;;;;;;;11.25;5.93;;;0.50;99.90;;;;;;5035794;28;20045;-50
2022/03/09 05:56:41;;;;;;;13.90;6.40;;;0.50;99.90;;;;;;5035462;28;20041;-48
2022/03/09 05:59:07;;;;;;;12.43;6.50;;;0.40;99.90;;;;;;5035742;28;20033;-50
2022/03/09 06:01:33;;;;;;;13.10;6.13;;;0.40;99.90;;;;;;5017948;28;20041;-49
2022/03/09 06:03:59;;;;;;;11.85;6.60;;;0.40;99.90;;;;;;5031205;28;20038;-50
2022/03/09 06:06:24;;;;;;;12.82;6.35;;;0.40;99.90;;;;;;5035650;28;20401;-45
2022/03/09 06:08:50;;;;;;;11.23;5.85;;;0.50;99.90;;;;;;5017510;28;20112;-46
2022/03/09 06:11:16;;;;;;;11.95;6.45;;;0.40;99.90;;;;;;5035601;28;20110;-51
2022/03/09 06:13:41;;;;;;;14.70;7.85;;;0.50;99.90;;;;;;5035235;28;20033;-51
2022/03/09 06:16:07;;;;;;;12.35;6.20;;;0.40;99.90;;;;;;5034289;28;20398;-50
2022/03/09 06:18:33;;;;;;;10.77;5.90;;;0.50;99.90;;;;;;5034367;28;20041;-50
2022/03/09 06:20:58;;;;;;;13.88;6.28;;;0.50;99.90;;;;;;5034212;28;20621;-46
2022/03/09 06:23:24;;;;;;;11.25;6.10;;;0.50;99.90;;;;;;5033939;28;20107;-50
2022/03/09 06:25:50;;;;;;;11.40;6.43;;;0.50;99.90;;;;;;5034303;28;20052;-46
2022/03/09 06:28:16;;;;;;;14.10;6.78;;;0.50;99.90;;;;;;5034506;28;20079;-48
2022/03/09 06:30:41;;;;;;;12.95;6.38;;;0.60;99.90;;;;;;5034432;28;20045;-48
2022/03/09 06:33:07;;;;;;;13.27;6.82;;;0.50;99.90;;;;;;5033485;28;20609;-52
2022/03/09 06:35:33;;;;;;;13.95;6.78;;;0.60;99.90;;;;;;5016566;28;20058;-52
2022/03/09 06:37:59;;;;;;;11.25;6.05;;;0.70;99.90;;;;;;5034013;28;20039;-51
2022/03/09 06:40:25;;;;;;;11.40;6.35;;;0.70;99.90;;;;;;5034161;28;20136;-50
2022/03/09 06:42:51;;;;;;;12.30;6.13;;;0.70;99.90;;;;;;5034120;28;20053;-50
2022/03/09 06:45:17;;;;;;;12.00;6.43;;;0.70;99.90;;;;;;5015586;28;20045;-47
2022/03/09 06:47:43;;;;;;;13.85;7.07;;;0.70;99.90;;;;;;5033613;28;20495;-50
2022/03/09 06:50:10;;;;;;;11.55;6.75;;;0.80;99.90;;;;;;5033704;28;20045;-47
2022/03/09 06:52:36;;;;;;;13.98;7.30;;;0.80;99.90;;;;;;5033695;28;20102;-46
2022/03/09 06:55:03;;;;;;;11.35;6.03;;;0.90;99.90;;;;;;5033568;28;20049;-45
2022/03/09 06:57:31;;;;;;;11.82;6.57;;;0.90;99.90;;;;;;5033412;28;20069;-47
2022/03/09 06:59:57;;;;;;;14.02;6.82;;;0.90;99.90;;;;;;5030056;28;20041;-47
2022/03/09 07:02:22;;;;;;;11.57;6.43;;;0.90;99.90;;;;;;5007881;28;20033;-46
2022/03/09 07:04:48;;;;;;;13.98;6.95;;;1.00;99.90;;;;;;5028910;28;20045;-47
2022/03/09 07:07:14;;;;;;;12.27;6.85;;;1.10;99.90;;;;;;5033586;28;20050;-47
2022/03/09 07:09:40;;;;;;;11.65;6.13;;;1.10;99.90;;;;;;5015766;28;20518;-46
2022/03/09 07:12:06;;;;;;;12.60;6.53;;;1.20;99.90;;;;;;5033313;28;20045;-47
2022/03/09 07:14:31;;;;;;;14.02;7.63;;;1.20;99.90;;;;;;5033555;28;20128;-48
2022/03/09 07:16:57;;;;;;;12.10;6.72;;;1.30;99.90;;;;;;5033089;28;20184;-49
2022/03/09 07:19:23;;;;;;;11.98;6.47;;;1.30;99.90;;;;;;5033173;28;20046;-49
2022/03/09 07:21:48;;;;;;;13.48;6.90;;;1.40;99.90;;;;;;5033179;28;20053;-50
2022/03/09 07:24:15;;;;;;;13.00;7.68;;;1.40;99.90;;;;;;5031859;28;20072;-49
2022/03/09 07:26:42;;;;;;;11.73;6.25;;;1.50;99.90;;;;;;5032930;28;20135;-49
2022/03/09 07:29:15;;;;;;;11.95;6.68;;;1.50;99.90;;;;;;5032936;28;20124;-49
2022/03/09 07:31:41;;;;;;;14.73;6.88;;;1.60;99.90;;;;;;5033225;28;20075;-49
2022/03/09 07:34:07;;;;;;;13.10;6.80;;;1.70;99.90;;;;;;5023149;28;20030;-51
2022/03/09 07:36:32;;;;;;;12.77;6.38;;;1.80;99.90;;;;;;5021618;28;20047;-48
2022/03/09 07:38:58;;;;;;;13.52;7.13;;;1.80;99.90;;;;;;5023733;28;20096;-51
2022/03/09 07:41:24;;;;;;;15.88;9.02;;;1.90;99.90;;;;;;5016101;28;20034;-49
2022/03/09 07:43:50;;;;;;;20.23;7.57;;;1.90;99.90;;;;;;5012811;28;20084;-49
2022/03/09 07:46:16;;;;;;;16.48;7.10;;;2.00;99.90;;;;;;5014066;28;20486;-46
2022/03/09 07:48:41;;;;;;;13.85;7.00;;;2.10;99.90;;;;;;5013979;28;20540;-50
2022/03/09 07:51:07;;;;;;;12.93;7.10;;;2.20;99.90;;;;;;5013959;28;20521;-48
2022/03/09 07:53:33;;;;;;;13.65;7.03;;;2.30;99.90;;;;;;5013651;28;20034;-47
2022/03/09 07:55:58;;;;;;;12.80;6.60;;;2.30;99.90;;;;;;5013805;28;20052;-46
2022/03/09 07:58:24;;;;;;;12.63;7.35;;;2.40;99.90;;;;;;5013492;28;20042;-49
2022/03/09 08:00:50;;;;;;;15.25;7.32;;;2.40;99.90;;;;;;4995938;28;20061;-48
2022/03/09 08:03:15;;;;;;;14.20;6.68;;;2.50;99.90;;;;;;4996049;28;20049;-49
2022/03/09 08:05:43;;;;;;;12.88;7.15;;;2.60;99.90;;;;;;5027927;28;20545;-51
2022/03/09 08:08:08;;;;;;;12.07;6.85;;;2.70;99.90;;;;;;5033218;28;20045;-52
2022/03/09 08:10:34;;;;;;;10.80;6.13;;;2.80;99.90;;;;;;5015400;28;20105;-49
2022/03/09 08:13:00;;;;;;;13.02;7.53;;;2.80;99.90;;;;;;5015201;28;20053;-48
2022/03/09 08:15:25;;;;;;;14.25;6.95;;;2.90;99.90;;;;;;5033162;28;20045;-49
2022/03/09 08:17:51;;;;;;;15.35;7.05;;;3.00;99.90;;;;;;5015538;28;20033;-52
2022/03/09 08:20:17;;;;;;;13.38;7.45;;;3.10;99.90;;;;;;5033102;28;20119;-47
2022/03/09 08:22:43;;;;;;;12.43;7.60;;;3.20;99.90;;;;;;5032752;28;20059;-51
2022/03/09 08:25:09;;;;;;;14.65;7.47;;;3.30;99.90;;;;;;5032960;28;20156;-50
2022/03/09 08:27:35;;;;;;;15.07;7.03;;;3.40;99.90;;;;;;5032670;28;20124;-49
2022/03/09 08:30:02;;;;;;;13.45;7.15;;;3.40;99.90;;;;;;5032820;28;20029;-52
2022/03/09 08:32:28;;;;;;;12.13;6.55;;;3.50;99.90;;;;;;5032894;28;20377;-53
2022/03/09 08:34:54;;;;;;;11.23;6.25;;;3.60;99.90;;;;;;5032656;28;20053;-48
2022/03/09 08:37:19;;;;;;;14.68;8.35;;;3.70;99.90;;;;;;5032398;28;20177;-48
2022/03/09 08:39:48;;;;;;;10.88;6.43;;;3.70;99.90;;;;;;5032377;28;20045;-47
2022/03/09 08:42:14;;;;;;;13.43;6.93;;;3.90;99.90;;;;;;5032652;28;20057;-48
2022/03/09 08:44:40;;;;;;;15.05;7.82;;;4.00;99.90;;;;;;5032454;28;20059;-49
2022/03/09 08:47:06;;;;;;;13.60;7.55;;;4.10;99.90;;;;;;5031953;28;20409;-50
2022/03/09 08:49:33;;;;;;;11.82;6.50;;;4.20;99.90;;;;;;5032283;28;20060;-47
2022/03/09 08:51:59;;;;;;;12.15;6.88;;;4.20;99.90;;;;;;5031269;28;20057;-50
2022/03/09 08:54:24;;;;;;;12.60;6.10;;;4.30;99.90;;;;;;5014419;28;20121;-48
2022/03/09 08:56:50;;;;;;;15.60;7.65;;;4.40;99.90;;;;;;5031929;28;20077;-50
2022/03/09 08:59:16;;;;;;;14.52;7.30;;;4.50;99.90;;;;;;5032376;28;20041;-48
2022/03/09 09:01:42;;;;;;;12.50;6.97;;;4.60;99.90;;;;;;5032430;28;20041;-50
2022/03/09 09:04:08;;;;;;;13.27;6.88;;;4.70;99.90;;;;;;5027430;28;20108;-49
2022/03/09 09:06:34;;;;;;;12.68;6.82;;;4.80;99.90;;;;;;5032037;28;20489;-51
2022/03/09 09:08:59;;;;;;;13.60;7.13;;;4.90;99.90;;;;;;5032049;28;20037;-47
2022/03/09 09:11:25;;;;;;;15.25;7.07;;;5.00;99.90;;;;;;5032328;28;20040;-48
2022/03/09 09:13:51;;;;;;;15.32;7.55;;;5.10;99.90;;;;;;5032383;28;20037;-46
2022/03/09 09:16:17;;;;;;;13.13;7.40;;;5.20;99.90;;;;;;5032264;28;20367;-48
2022/03/09 09:18:43;;;;;;;14.73;6.53;;;5.30;99.90;;;;;;5032242;28;20095;-48
2022/03/09 09:21:10;;;;;;;12.70;6.70;;;5.30;99.90;;;;;;5031997;28;20056;-46
2022/03/09 09:23:39;;;;;;;12.30;7.05;;;5.30;99.90;;;;;;5031777;28;20065;-47
2022/03/09 09:26:05;;;;;;;12.82;6.57;;;5.40;99.90;;;;;;5032477;28;20371;-48
2022/03/09 09:28:31;;;;;;;13.85;7.40;;;5.50;99.90;;;;;;5032286;28;20048;-46
2022/03/09 09:30:57;;;;;;;14.43;6.32;;;5.60;99.90;;;;;;5030763;28;20393;-49
2022/03/09 09:33:23;;;;;;;12.85;7.32;;;5.60;99.90;;;;;;5014244;28;20040;-52
2022/03/09 09:35:49;;;;;;;11.82;7.20;;;5.80;99.90;;;;;;5031868;28;20041;-51
2022/03/09 09:38:16;;;;;;;11.43;6.70;;;5.80;99.90;;;;;;5031981;28;20049;-51
2022/03/09 09:40:45;;;;;;;13.63;7.18;;;5.90;99.90;;;;;;5031836;28;20037;-49
2022/03/09 09:43:12;;;;;;;12.63;7.30;;;6.00;99.90;;;;;;5031764;28;20482;-48
2022/03/09 09:45:39;;;;;;;15.02;8.25;;;6.10;99.90;;;;;;5031768;28;20104;-52
2022/03/09 09:48:07;;;;;;;10.52;6.03;;;6.20;99.90;;;;;;5031782;28;20042;-50
2022/03/09 09:50:33;;;;;;;9.60;6.40;;;6.20;99.90;;;;;;5031635;28;20037;-49
2022/03/09 09:53:04;;;;;;;12.93;7.13;;;6.20;99.90;;;;;;5031666;28;20116;-47
2022/03/09 09:55:31;;;;;;;14.35;6.68;;;6.30;99.90;;;;;;5031901;28;20041;-51
2022/03/09 09:57:57;;;;;;;14.43;7.03;;;6.40;99.90;;;;;;5031587;28;20053;-47
2022/03/09 10:00:24;;;;;;;13.38;6.75;;;6.50;99.90;;;;;;5031653;28;20045;-48
2022/03/09 10:02:50;;;;;;;12.40;6.50;;;6.60;99.90;;;;;;5031509;28;20049;-52
2022/03/09 10:05:18;;;;;;;11.68;6.50;;;6.70;99.90;;;;;;5009348;28;20046;-47
2022/03/09 10:08:02;;;;;;;13.75;7.03;;;6.80;99.90;;;;;;5033443;28;20037;-51
2022/03/09 10:10:31;;;;;;;13.02;7.15;;;6.80;99.90;;;;;;5035508;28;20033;-47
2022/03/09 10:13:18;;;;;;;12.52;7.45;;;6.90;99.90;;;;;;5035130;28;20490;-51
2022/03/09 10:16:19;;;;;;;12.20;6.75;;;7.10;99.90;;;;;;5035019;28;20055;-46
2022/03/09 10:18:54;;;;;;;12.45;7.00;;;7.10;98.00;;;;;;5035375;28;20052;-51
2022/03/09 10:21:29;;;;;;;15.13;7.18;;;7.10;98.70;;;;;;5035364;28;20393;-50
2022/03/09 10:23:59;;;;;;;14.05;7.22;;;7.10;98.20;;;;;;5034853;28;20454;-48
2022/03/09 10:26:34;;;;;;;12.13;6.90;;;7.30;97.80;;;;;;5000821;28;20046;-47
2022/03/09 10:29:04;;;;;;;14.75;7.65;;;7.40;97.00;;;;;;5035152;28;20088;-47
2022/03/09 10:31:31;;;;;;;13.73;7.22;;;7.40;96.70;;;;;;5034919;28;20044;-48
2022/03/09 10:34:09;;;;;;;11.20;6.47;;;7.50;97.50;;;;;;5034775;28;20160;-48
2022/03/09 10:36:35;;;;;;;11.30;6.63;;;7.50;97.40;;;;;;5035008;28;20052;-46
2022/03/09 10:39:13;;;;;;;14.05;6.97;;;7.60;95.70;;;;;;5035008;28;20143;-50
2022/03/09 10:41:39;;;;;;;13.65;6.93;;;7.60;94.30;;;;;;5034986;28;20116;-47
2022/03/09 10:44:05;;;;;;;13.40;6.97;;;7.70;95.30;;;;;;5017183;28;20199;-47
2022/03/09 10:46:48;;;;;;;12.30;6.63;;;7.70;95.40;;;;;;5034483;28;20057;-46
2022/03/09 10:49:19;;;;;;;12.95;6.95;;;7.80;95.00;;;;;;5034516;28;20034;-52
2022/03/09 10:51:48;;;;;;;14.23;6.82;;;7.80;95.90;;;;;;5034400;28;20049;-48
2022/03/09 10:54:29;;;;;;;13.35;7.15;;;8.00;95.70;;;;;;5034782;28;20141;-51
2022/03/09 10:57:13;;;;;;;13.38;7.38;;;8.10;94.20;;;;;;5034289;28;20050;-50
2022/03/09 10:59:51;;;;;;;15.57;7.13;;;8.20;94.90;;;;;;5034176;28;20042;-51
2022/03/09 11:02:19;;;;;;;11.95;6.85;;;8.20;94.00;;;;;;5034601;28;20033;-51
2022/03/09 11:05:05;;;;;;;13.50;7.13;;;8.30;94.70;;;;;;5029878;28;20111;-48
2022/03/09 11:07:32;;;;;;;13.05;7.30;;;8.40;93.20;;;;;;5034320;28;20081;-48
2022/03/09 11:09:58;;;;;;;11.63;6.65;;;8.40;91.70;;;;;;5034297;28;20132;-48
2022/03/09 11:12:24;;;;;;;14.25;7.70;;;8.50;93.00;;;;;;5016709;28;20139;-47
2022/03/09 11:14:50;;;;;;;13.23;7.07;;;8.60;93.60;;;;;;5034246;28;20038;-47
2022/03/09 11:17:23;;;;;;;14.25;7.55;;;8.70;93.60;;;;;;5016338;28;20056;-48
2022/03/09 11:19:49;;;;;;;11.82;6.70;;;8.80;93.10;;;;;;5034174;28;20052;-47
2022/03/09 11:22:15;;;;;;;13.30;7.35;;;8.90;93.50;;;;;;5016074;28;20061;-53
2022/03/09 11:24:41;;;;;;;13.43;7.38;;;8.90;92.10;;;;;;5034197;28;20094;-48
2022/03/09 11:27:08;;;;;;;14.85;7.55;;;9.10;92.40;;;;;;5016077;28;20107;-47
2022/03/09 11:29:35;;;;;;;13.45;7.72;;;9.10;90.00;;;;;;5032729;28;20050;-47
2022/03/09 11:32:04;;;;;;;11.18;6.72;;;9.20;91.10;;;;;;5033727;28;20497;-49
2022/03/09 11:34:31;;;;;;;12.98;7.03;;;9.30;90.90;;;;;;5033656;28;20041;-47
2022/03/09 11:36:59;;;;;;;13.05;6.20;;;9.30;92.00;;;;;;5033599;28;20047;-48
2022/03/09 11:39:25;;;;;;;11.43;7.05;;;9.40;91.20;;;;;;5033874;28;20388;-47
2022/03/09 11:42:19;;;;;;;14.05;6.80;;;9.60;90.70;;;;;;5032621;28;20041;-48
2022/03/09 11:44:49;;;;;;;11.65;7.63;;;9.60;88.60;;;;;;5033349;28;20051;-48
2022/03/09 11:47:16;;;;;;;13.77;6.82;;;9.60;88.00;;;;;;5033605;28;20045;-51
2022/03/09 11:49:42;;;;;;;12.10;7.25;;;9.60;88.50;;;;;;5015552;28;20120;-49
2022/03/09 11:52:18;;;;;;;13.02;7.57;;;9.60;86.60;;;;;;5033537;28;20741;-51
2022/03/09 11:55:00;;;;;;;11.48;6.65;;;9.60;87.60;;;;;;5032722;28;20120;-52
2022/03/09 11:57:49;;;;;;;12.13;7.22;;;9.70;88.20;;;;;;5015899;28;20084;-49
2022/03/09 12:00:17;;;;;;;11.68;7.05;;;9.80;87.10;;;;;;5032772;28;20117;-47
2022/03/09 12:02:56;;;;;;;11.23;6.82;;;10.00;88.50;;;;;;5032881;28;20052;-48
2022/03/09 12:05:24;;;;;;;14.60;7.50;;;10.10;90.10;;;;;;5028155;28;20045;-47
2022/03/09 12:08:01;;;;;;;11.70;7.60;;;10.30;90.40;;;;;;5014966;28;20041;-47
2022/03/09 12:10:52;;;;;;;13.07;7.57;;;10.20;84.40;;;;;;5033039;28;20390;-48
2022/03/09 12:13:45;;;;;;;13.65;7.80;;;10.40;83.90;;;;;;5015306;28;20124;-48
2022/03/09 12:16:14;;;;;;;12.02;7.07;;;10.50;83.70;;;;;;5024124;28;20053;-47
2022/03/09 12:18:40;;;;;;;12.65;7.25;;;10.50;84.10;;;;;;5013019;28;20075;-46
2022/03/09 12:21:08;;;;;;;11.77;7.35;;;10.70;82.50;;;;;;5005791;28;20073;-48
2022/03/09 12:23:35;;;;;;;12.65;7.35;;;10.70;82.10;;;;;;5021871;28;20046;-48
2022/03/09 12:26:01;;;;;;;11.88;6.80;;;10.70;82.00;;;;;;5022117;28;20470;-50
2022/03/09 12:28:34;;;;;;;10.98;6.97;;;10.70;80.80;;;;;;5023576;28;20041;-52
2022/03/09 12:31:02;;;;;;;12.55;7.93;;;10.80;81.70;;;;;;5022428;28;20042;-52
2022/03/09 12:33:42;;;;;;;11.55;7.00;;;10.80;81.80;;;;;;5003958;28;20084;-50
2022/03/09 12:36:15;;;;;;;13.30;7.70;;;10.90;79.60;;;;;;5022422;28;20117;-52
2022/03/09 12:39:05;;;;;;;14.52;7.25;;;10.90;78.40;;;;;;5021956;28;20042;-50
2022/03/09 12:41:44;;;;;;;12.88;8.20;;;10.90;74.10;;;;;;5023134;28;20124;-52
2022/03/09 12:44:16;;;;;;;12.10;7.80;;;11.00;74.40;;;;;;5020411;28;20081;-52
2022/03/09 12:46:44;;;;;;;16.02;7.72;;;11.00;76.10;;;;;;5022363;28;20582;-48
2022/03/09 12:49:18;;;;;;;14.65;7.93;;;11.00;76.30;;;;;;5020921;28;20149;-52
2022/03/09 12:51:51;;;;;;;12.63;7.65;;;11.00;77.90;;;;;;5026502;28;20033;-48